createdAt,value
2023-02-17T00:00:54.767Z,7.68
2023-02-17T00:03:21.410Z,7.68
2023-02-17T00:05:50.685Z,7.68
2023-02-17T00:08:17.692Z,7.71
2023-02-17T00:10:44.486Z,7.64
2023-02-17T00:13:11.118Z,7.54
2023-02-17T00:15:40.560Z,7.45
2023-02-17T00:18:07.139Z,7.40
2023-02-17T00:20:33.893Z,7.45
2023-02-17T00:23:00.530Z,7.39
2023-02-17T00:25:27.233Z,7.29
2023-02-17T00:27:53.971Z,7.26
2023-02-17T00:30:20.856Z,7.21
2023-02-17T00:32:47.478Z,7.17
2023-02-17T00:35:14.057Z,7.09
2023-02-17T00:37:40.754Z,7.09
2023-02-17T00:40:07.913Z,7.09
2023-02-17T00:42:34.511Z,7.05
2023-02-17T00:45:01.161Z,7.04
2023-02-17T00:47:27.801Z,7.02
2023-02-17T00:49:54.365Z,7.03
2023-02-17T00:52:20.909Z,7.04
2023-02-17T00:54:47.437Z,7.14
2023-02-17T00:57:14.116Z,7.00
2023-02-17T00:59:40.781Z,6.96
2023-02-17T01:02:07.852Z,6.98
2023-02-17T01:04:34.486Z,7.01
2023-02-17T01:07:01.865Z,6.91
2023-02-17T01:09:28.453Z,6.76
2023-02-17T01:11:55.059Z,6.75
2023-02-17T01:14:21.792Z,6.68
2023-02-17T01:16:49.477Z,6.64
2023-02-17T01:19:19.185Z,6.68
2023-02-17T01:21:46.346Z,6.63
2023-02-17T01:24:13.228Z,6.59
2023-02-17T01:26:40.875Z,6.57
2023-02-17T01:29:08.263Z,6.60
2023-02-17T01:31:35.237Z,6.65
2023-02-17T01:34:04.654Z,6.60
2023-02-17T01:36:32.402Z,6.65
2023-02-17T01:38:59.243Z,6.66
2023-02-17T01:41:27.332Z,6.61
2023-02-17T01:44:14.724Z,6.54
2023-02-17T01:46:44.218Z,6.53
2023-02-17T01:49:34.482Z,6.50
2023-02-17T01:52:04.464Z,6.45
2023-02-17T01:54:39.669Z,6.49
2023-02-17T01:57:06.438Z,6.42
2023-02-17T01:59:33.583Z,6.38
2023-02-17T02:02:04.984Z,6.34
2023-02-17T02:04:35.112Z,6.36
2023-02-17T02:07:03.779Z,6.40
2023-02-17T02:09:36.604Z,6.38
2023-02-17T02:12:15.054Z,6.28
2023-02-17T02:14:41.615Z,6.27
2023-02-17T02:17:26.521Z,6.31
2023-02-17T02:19:53.032Z,6.25
2023-02-17T02:22:48.564Z,6.26
2023-02-17T02:25:36.219Z,6.23
2023-02-17T02:28:20.868Z,6.21
2023-02-17T02:30:56.574Z,6.16
2023-02-17T02:33:33.057Z,6.13
2023-02-17T02:36:23.853Z,6.06
2023-02-17T02:39:09.230Z,6.03
2023-02-17T02:41:42.836Z,5.98
2023-02-17T02:44:13.040Z,5.98
2023-02-17T02:46:39.684Z,5.94
2023-02-17T02:49:07.469Z,5.85
2023-02-17T02:51:55.857Z,5.85
2023-02-17T02:54:46.032Z,5.78
2023-02-17T02:57:15.235Z,5.77
2023-02-17T02:59:49.738Z,5.77
2023-02-17T03:02:22.305Z,5.71
2023-02-17T03:04:51.812Z,5.70
2023-02-17T03:07:25.036Z,5.62
2023-02-17T03:09:54.227Z,5.59
2023-02-17T03:12:22.359Z,5.57
2023-02-17T03:14:51.140Z,5.56
2023-02-17T03:17:17.723Z,5.50
2023-02-17T03:19:47.807Z,5.45
2023-02-17T03:22:22.437Z,5.33
2023-02-17T03:24:49.088Z,5.38
2023-02-17T03:27:15.673Z,5.38
2023-02-17T03:29:43.009Z,5.44
2023-02-17T03:32:09.730Z,5.40
2023-02-17T03:34:36.730Z,5.37
2023-02-17T03:37:03.852Z,5.39
2023-02-17T03:39:31.608Z,5.44
2023-02-17T03:41:58.209Z,5.50
2023-02-17T03:44:24.817Z,5.54
2023-02-17T03:46:51.382Z,5.58
2023-02-17T03:49:17.989Z,5.46
2023-02-17T03:51:44.713Z,5.45
2023-02-17T03:54:11.274Z,5.56
2023-02-17T03:56:37.797Z,5.63
2023-02-17T03:59:04.873Z,5.48
2023-02-17T04:01:31.550Z,5.52
2023-02-17T04:03:58.291Z,5.47
2023-02-17T04:06:25.121Z,5.42
2023-02-17T04:08:51.715Z,5.36
2023-02-17T04:11:18.317Z,5.35
2023-02-17T04:13:44.924Z,5.37
2023-02-17T04:16:12.127Z,5.30
2023-02-17T04:18:39.110Z,5.58
2023-02-17T04:21:06.408Z,5.50
2023-02-17T04:23:35.994Z,5.62
2023-02-17T04:26:04.532Z,5.33
2023-02-17T04:28:31.309Z,5.24
2023-02-17T04:30:59.656Z,5.46
2023-02-17T04:33:27.050Z,5.38
2023-02-17T04:35:59.528Z,5.29
2023-02-17T04:38:30.444Z,5.19
2023-02-17T04:40:58.112Z,5.12
2023-02-17T04:43:26.481Z,5.11
2023-02-17T04:45:54.228Z,5.11
2023-02-17T04:48:20.824Z,5.22
2023-02-17T04:50:47.454Z,5.18
2023-02-17T04:53:14.514Z,5.19
2023-02-17T04:55:41.930Z,5.21
2023-02-17T04:58:09.448Z,5.30
2023-02-17T05:00:36.801Z,5.18
2023-02-17T05:03:03.471Z,5.13
2023-02-17T05:05:30.132Z,5.20
2023-02-17T05:07:56.665Z,5.17
2023-02-17T05:10:24.134Z,5.17
2023-02-17T05:12:50.927Z,5.08
2023-02-17T05:15:17.462Z,5.00
2023-02-17T05:17:44.316Z,4.98
2023-02-17T05:20:11.354Z,4.97
2023-02-17T05:22:38.005Z,4.94
2023-02-17T05:25:05.284Z,4.96
2023-02-17T05:27:32.902Z,5.01
2023-02-17T05:29:59.630Z,5.02
2023-02-17T05:32:26.181Z,5.05
2023-02-17T05:34:52.744Z,5.00
2023-02-17T05:37:19.354Z,5.04
2023-02-17T05:39:46.626Z,5.08
2023-02-17T05:42:13.309Z,5.08
2023-02-17T05:44:39.869Z,5.10
2023-02-17T05:47:06.557Z,5.07
2023-02-17T05:49:33.072Z,5.09
2023-02-17T05:51:59.616Z,5.45
2023-02-17T05:54:26.199Z,5.41
2023-02-17T05:56:52.729Z,5.36
2023-02-17T05:59:19.893Z,5.23
2023-02-17T06:01:46.755Z,4.95
2023-02-17T06:04:13.296Z,4.86
2023-02-17T06:06:39.865Z,4.88
2023-02-17T06:09:06.412Z,4.92
2023-02-17T06:11:33.761Z,4.92
2023-02-17T06:14:00.590Z,4.81
2023-02-17T06:16:27.244Z,4.87
2023-02-17T06:18:53.781Z,4.83
2023-02-17T06:21:20.327Z,4.82
2023-02-17T06:23:47.927Z,4.96
2023-02-17T06:26:14.738Z,4.95
2023-02-17T06:28:42.544Z,4.97
2023-02-17T06:31:09.163Z,4.83
2023-02-17T06:33:36.250Z,4.77
2023-02-17T06:36:03.246Z,4.81
2023-02-17T06:38:30.006Z,4.91
2023-02-17T06:40:56.555Z,4.88
2023-02-17T06:43:23.127Z,4.90
2023-02-17T06:45:50.262Z,4.95
2023-02-17T06:48:16.864Z,4.99
2023-02-17T06:50:43.509Z,4.95
2023-02-17T06:53:10.034Z,4.97
2023-02-17T06:55:39.082Z,4.98
2023-02-17T06:58:05.929Z,4.92
2023-02-17T07:00:32.487Z,4.89
2023-02-17T07:02:59.223Z,4.92
2023-02-17T07:05:26.001Z,4.83
2023-02-17T07:07:53.647Z,4.88
2023-02-17T07:10:21.224Z,4.84
2023-02-17T07:12:47.800Z,4.89
2023-02-17T07:15:15.046Z,4.86
2023-02-17T07:17:41.774Z,4.98
2023-02-17T07:20:09.420Z,4.95
2023-02-17T07:22:35.989Z,4.93
2023-02-17T07:25:02.524Z,4.99
2023-02-17T07:27:29.082Z,5.02
2023-02-17T07:29:55.832Z,5.01
2023-02-17T07:32:22.478Z,4.97
2023-02-17T07:34:49.059Z,5.03
2023-02-17T07:37:15.662Z,5.07
2023-02-17T07:39:42.211Z,5.02
2023-02-17T07:42:09.879Z,4.98
2023-02-17T07:44:36.384Z,4.99
2023-02-17T07:47:02.919Z,5.03
2023-02-17T07:49:29.520Z,5.04
2023-02-17T07:51:56.073Z,5.13
2023-02-17T07:54:22.798Z,5.11
2023-02-17T07:56:49.386Z,5.13
2023-02-17T07:59:16.126Z,5.13
2023-02-17T08:01:42.754Z,5.19
2023-02-17T08:04:09.483Z,5.28
2023-02-17T08:06:39.430Z,5.18
2023-02-17T08:09:24.677Z,5.37
2023-02-17T08:12:09.656Z,5.36
2023-02-17T08:14:37.287Z,5.41
2023-02-17T08:17:03.915Z,5.53
2023-02-17T08:19:46.501Z,5.57
2023-02-17T08:22:15.570Z,5.60
2023-02-17T08:24:42.151Z,5.71
2023-02-17T08:27:08.971Z,5.58
2023-02-17T08:29:35.611Z,5.65
2023-02-17T08:32:02.469Z,5.68
2023-02-17T08:34:33.653Z,5.72
2023-02-17T08:37:05.801Z,5.78
2023-02-17T08:39:33.723Z,5.78
2023-02-17T08:42:00.713Z,5.83
2023-02-17T08:44:27.265Z,5.92
2023-02-17T08:46:54.456Z,6.01
2023-02-17T08:49:24.243Z,6.01
2023-02-17T08:51:52.238Z,6.08
2023-02-17T08:54:19.052Z,6.15
2023-02-17T08:56:46.079Z,6.22
2023-02-17T08:59:13.137Z,6.29
2023-02-17T09:01:40.463Z,6.32
2023-02-17T09:04:09.127Z,6.35
2023-02-17T09:06:50.977Z,6.43
2023-02-17T09:09:20.773Z,6.47
2023-02-17T09:11:47.341Z,6.49
2023-02-17T09:14:14.340Z,6.60
2023-02-17T09:16:41.714Z,6.65
2023-02-17T09:19:08.652Z,6.68
2023-02-17T09:21:35.327Z,6.74
2023-02-17T09:24:01.973Z,6.73
2023-02-17T09:26:28.586Z,6.81
2023-02-17T09:28:55.269Z,6.78
2023-02-17T09:31:25.031Z,6.84
2023-02-17T09:33:51.717Z,6.88
2023-02-17T09:36:24.353Z,6.89
2023-02-17T09:38:51.806Z,6.91
2023-02-17T09:41:34.657Z,6.97
2023-02-17T09:44:02.163Z,7.13
2023-02-17T09:46:37.424Z,7.14
2023-02-17T09:49:11.442Z,7.13
2023-02-17T09:51:48.286Z,7.19
2023-02-17T09:54:22.577Z,7.18
2023-02-17T09:56:51.742Z,7.27
2023-02-17T09:59:32.563Z,7.31
2023-02-17T10:02:01.351Z,7.39
2023-02-17T10:04:35.956Z,7.44
2023-02-17T10:07:07.523Z,7.53
2023-02-17T10:09:40.789Z,7.65
2023-02-17T10:12:14.030Z,7.69
2023-02-17T10:14:45.305Z,7.70
2023-02-17T10:17:30.087Z,7.91
2023-02-17T10:20:34.022Z,7.90
2023-02-17T10:23:10.817Z,8.09
2023-02-17T10:25:52.726Z,8.26
2023-02-17T10:28:36.508Z,8.45
2023-02-17T10:31:05.932Z,8.54
2023-02-17T10:33:36.558Z,8.47
2023-02-17T10:36:11.031Z,8.42
2023-02-17T10:38:52.994Z,8.49
2023-02-17T10:41:36.286Z,8.65
2023-02-17T10:44:08.854Z,8.91
2023-02-17T10:46:35.476Z,9.00
2023-02-17T10:49:02.267Z,9.04
2023-02-17T10:51:31.202Z,9.19
2023-02-17T10:54:03.850Z,9.26
2023-02-17T10:56:41.762Z,9.22
2023-02-17T10:59:32.730Z,9.30
2023-02-17T11:02:17.391Z,9.59
2023-02-17T11:04:46.708Z,9.64
2023-02-17T11:07:16.905Z,9.77
2023-02-17T11:09:49.724Z,10.09
2023-02-17T11:12:29.152Z,10.20
2023-02-17T11:14:56.506Z,10.11
2023-02-17T11:17:38.886Z,10.02
2023-02-17T11:20:13.603Z,10.10
2023-02-17T11:22:45.111Z,10.13
2023-02-17T11:25:27.372Z,10.09
2023-02-17T11:27:57.326Z,10.31
2023-02-17T11:30:25.000Z,10.31
2023-02-17T11:32:51.914Z,10.36
2023-02-17T11:35:28.327Z,10.55
2023-02-17T11:38:12.309Z,10.69
2023-02-17T11:40:39.064Z,10.68
2023-02-17T11:43:06.473Z,10.64
2023-02-17T11:46:05.619Z,10.60
2023-02-17T11:48:37.382Z,10.66
2023-02-17T11:51:36.632Z,10.84
2023-02-17T11:54:17.080Z,11.00
2023-02-17T11:56:52.946Z,11.08
2023-02-17T11:59:23.036Z,11.33
2023-02-17T12:02:07.206Z,11.27
2023-02-17T12:05:03.377Z,11.37
2023-02-17T12:07:38.730Z,11.57
2023-02-17T12:10:31.142Z,11.52
2023-02-17T12:13:24.790Z,11.56
2023-02-17T12:16:06.743Z,11.70
2023-02-17T12:19:02.155Z,11.69
2023-02-17T12:21:50.686Z,11.65
2023-02-17T12:24:35.989Z,11.85
2023-02-17T12:27:11.248Z,12.11
2023-02-17T12:29:43.811Z,12.17
2023-02-17T12:32:58.983Z,12.33
2023-02-17T12:35:31.460Z,12.39
2023-02-17T12:38:02.456Z,12.75
2023-02-17T12:40:42.701Z,12.70
2023-02-17T12:43:36.282Z,12.53
2023-02-17T12:46:10.783Z,12.48
2023-02-17T12:48:40.381Z,12.55
2023-02-17T12:51:18.759Z,12.52
2023-02-17T12:53:50.795Z,12.71
2023-02-17T12:56:40.150Z,12.84
2023-02-17T12:59:19.903Z,13.01
2023-02-17T13:01:57.869Z,13.00
2023-02-17T13:04:26.325Z,13.00
2023-02-17T13:07:00.798Z,12.89
2023-02-17T13:09:36.247Z,12.83
2023-02-17T13:12:17.540Z,13.01
2023-02-17T13:14:46.368Z,13.15
2023-02-17T13:17:24.593Z,13.93
2023-02-17T13:20:11.395Z,14.08
2023-02-17T13:22:39.842Z,13.94
2023-02-17T13:25:07.843Z,13.95
2023-02-17T13:27:36.534Z,13.77
2023-02-17T13:30:27.037Z,13.68
2023-02-17T13:33:26.899Z,13.55
2023-02-17T13:35:53.518Z,13.57
2023-02-17T13:38:30.066Z,13.69
2023-02-17T13:41:02.072Z,14.51
2023-02-17T13:43:33.694Z,14.53
2023-02-17T13:46:03.807Z,14.74
2023-02-17T13:48:33.607Z,14.58
2023-02-17T13:51:27.588Z,14.32
2023-02-17T13:53:54.312Z,14.31
2023-02-17T13:56:29.900Z,14.35
2023-02-17T13:59:17.628Z,14.43
2023-02-17T14:01:46.053Z,14.51
2023-02-17T14:04:22.714Z,14.59
2023-02-17T14:06:50.037Z,14.55
2023-02-17T14:09:32.097Z,14.71
2023-02-17T14:12:02.230Z,14.81
2023-02-17T14:14:32.616Z,14.88
2023-02-17T14:16:59.186Z,14.82
2023-02-17T14:19:25.862Z,14.68
2023-02-17T14:22:02.445Z,14.49
2023-02-17T14:24:32.589Z,14.55
2023-02-17T14:27:14.066Z,14.45
2023-02-17T14:29:49.127Z,14.62
2023-02-17T14:32:35.927Z,14.81
2023-02-17T14:35:11.634Z,14.84
2023-02-17T14:37:40.250Z,15.03
2023-02-17T14:40:15.776Z,15.06
2023-02-17T14:42:42.315Z,14.95
2023-02-17T14:45:09.006Z,14.88
2023-02-17T14:47:35.535Z,14.96
2023-02-17T14:50:02.138Z,14.90
2023-02-17T14:52:28.783Z,14.94
2023-02-17T14:54:55.353Z,14.93
2023-02-17T14:57:27.794Z,14.84
2023-02-17T14:59:57.630Z,14.89
2023-02-17T15:02:25.016Z,14.78
2023-02-17T15:04:51.603Z,14.74
2023-02-17T15:07:18.844Z,14.87
2023-02-17T15:09:47.328Z,14.90
2023-02-17T15:12:19.581Z,14.87
2023-02-17T15:14:47.093Z,15.17
2023-02-17T15:17:15.068Z,15.19
2023-02-17T15:19:44.894Z,15.14
2023-02-17T15:22:13.596Z,15.24
2023-02-17T15:24:41.257Z,15.14
2023-02-17T15:27:14.001Z,15.06
2023-02-17T15:29:40.764Z,15.13
2023-02-17T15:32:15.415Z,15.03
2023-02-17T15:34:42.052Z,14.93
2023-02-17T15:37:11.285Z,15.25
2023-02-17T15:39:38.094Z,14.98
2023-02-17T15:42:13.720Z,14.84
2023-02-17T15:44:46.837Z,14.73
2023-02-17T15:47:17.555Z,14.83
2023-02-17T15:49:44.316Z,14.74
2023-02-17T15:52:14.689Z,14.64
2023-02-17T15:54:42.958Z,14.55
2023-02-17T15:57:21.050Z,14.81
2023-02-17T15:59:48.077Z,15.06
2023-02-17T16:02:23.408Z,14.98
2023-02-17T16:04:50.036Z,15.30
2023-02-17T16:07:16.723Z,15.17
2023-02-17T16:09:43.339Z,15.12
2023-02-17T16:12:27.061Z,15.02
2023-02-17T16:14:54.679Z,15.00
2023-02-17T16:17:21.345Z,14.92
2023-02-17T16:19:47.918Z,14.94
2023-02-17T16:22:14.769Z,14.99
2023-02-17T16:24:41.326Z,14.96
2023-02-17T16:27:12.265Z,14.87
2023-02-17T16:29:39.256Z,14.93
2023-02-17T16:32:06.163Z,15.03
2023-02-17T16:34:34.588Z,14.99
2023-02-17T16:37:04.097Z,14.93
2023-02-17T16:39:30.723Z,14.92
2023-02-17T16:41:57.381Z,14.88
2023-02-17T16:44:24.050Z,14.96
2023-02-17T16:46:53.353Z,14.95
2023-02-17T16:49:33.528Z,14.92
2023-02-17T16:52:01.291Z,14.93
2023-02-17T16:54:27.836Z,14.88
2023-02-17T16:56:55.707Z,14.91
2023-02-17T16:59:24.453Z,14.91
2023-02-17T17:01:53.419Z,14.85
2023-02-17T17:04:21.177Z,14.73
2023-02-17T17:06:50.627Z,14.67
2023-02-17T17:09:23.215Z,14.57
2023-02-17T17:11:50.463Z,14.56
2023-02-17T17:14:18.375Z,14.50
2023-02-17T17:16:51.754Z,14.66
2023-02-17T17:19:19.108Z,14.59
2023-02-17T17:21:45.613Z,14.62
2023-02-17T17:24:12.157Z,14.49
2023-02-17T17:26:45.174Z,14.51
2023-02-17T17:29:13.838Z,14.44
2023-02-17T17:31:40.770Z,14.41
2023-02-17T17:34:07.657Z,14.35
2023-02-17T17:36:38.612Z,14.26
2023-02-17T17:39:07.987Z,14.24
2023-02-17T17:41:35.348Z,14.18
2023-02-17T17:44:02.353Z,14.18
2023-02-17T17:46:31.585Z,14.11
2023-02-17T17:49:00.415Z,14.04
2023-02-17T17:51:29.525Z,14.00
2023-02-17T17:53:56.673Z,14.01
2023-02-17T17:56:29.400Z,13.85
2023-02-17T17:58:57.551Z,13.78
2023-02-17T18:01:24.628Z,13.73
2023-02-17T18:03:51.804Z,13.65
2023-02-17T18:06:46.940Z,13.63
2023-02-17T18:09:30.246Z,13.49
2023-02-17T18:12:01.427Z,13.32
2023-02-17T18:14:28.889Z,13.21
2023-02-17T18:16:55.603Z,13.12
2023-02-17T18:19:23.622Z,13.11
2023-02-17T18:21:50.143Z,13.05
2023-02-17T18:24:16.685Z,12.99
2023-02-17T18:26:43.222Z,12.92
2023-02-17T18:29:09.924Z,12.87
2023-02-17T18:31:36.702Z,12.82
2023-02-17T18:34:03.853Z,12.92
2023-02-17T18:36:31.029Z,12.89
2023-02-17T18:38:57.602Z,12.79
2023-02-17T18:41:29.900Z,12.73
2023-02-17T18:43:58.357Z,12.67
2023-02-17T18:46:27.086Z,12.62
2023-02-17T18:48:55.065Z,12.55
2023-02-17T18:51:23.798Z,12.54
2023-02-17T18:53:51.196Z,12.48
2023-02-17T18:56:21.616Z,12.47
2023-02-17T18:58:49.824Z,12.44
2023-02-17T19:01:40.825Z,12.47
2023-02-17T19:04:09.679Z,12.54
2023-02-17T19:06:36.383Z,12.56
2023-02-17T19:09:04.721Z,12.52
2023-02-17T19:11:32.272Z,12.39
2023-02-17T19:14:00.922Z,12.32
2023-02-17T19:16:29.845Z,12.37
2023-02-17T19:18:57.060Z,12.43
2023-02-17T19:21:24.747Z,12.40
2023-02-17T19:23:51.554Z,12.36
2023-02-17T19:26:19.464Z,12.30
2023-02-17T19:28:46.661Z,12.20
2023-02-17T19:31:16.677Z,12.11
2023-02-17T19:33:44.414Z,12.01
2023-02-17T19:36:13.519Z,11.94
2023-02-17T19:38:40.135Z,11.85
2023-02-17T19:41:09.295Z,11.86
2023-02-17T19:43:36.187Z,11.78
2023-02-17T19:46:03.595Z,11.76
2023-02-17T19:48:30.368Z,11.83
2023-02-17T19:51:03.671Z,11.91
2023-02-17T19:53:31.654Z,11.91
2023-02-17T19:56:28.979Z,11.84
2023-02-17T19:58:57.144Z,11.76
2023-02-17T20:01:27.437Z,11.67
2023-02-17T20:03:55.560Z,11.61
2023-02-17T20:06:27.648Z,11.64
2023-02-17T20:09:01.416Z,11.60
2023-02-17T20:11:29.302Z,11.64
2023-02-17T20:13:59.207Z,11.63
2023-02-17T20:16:26.211Z,11.52
2023-02-17T20:18:55.210Z,11.48
2023-02-17T20:21:24.601Z,11.39
2023-02-17T20:23:52.499Z,11.37
2023-02-17T20:26:30.539Z,11.38
2023-02-17T20:28:58.899Z,11.39
2023-02-17T20:31:26.445Z,11.37
2023-02-17T20:33:53.425Z,11.33
2023-02-17T20:36:22.181Z,11.26
2023-02-17T20:38:50.141Z,11.28
2023-02-17T20:41:19.690Z,11.33
2023-02-17T20:43:46.448Z,11.25
2023-02-17T20:46:22.155Z,11.22
2023-02-17T20:48:49.037Z,11.17
2023-02-17T20:51:15.708Z,11.12
2023-02-17T20:53:42.445Z,11.10
2023-02-17T20:56:17.176Z,11.07
2023-02-17T20:58:44.212Z,11.03
2023-02-17T21:01:11.374Z,10.97
2023-02-17T21:03:38.177Z,10.92
2023-02-17T21:06:14.543Z,10.93
2023-02-17T21:08:41.113Z,10.90
2023-02-17T21:11:07.659Z,10.91
2023-02-17T21:13:34.186Z,10.91
2023-02-17T21:16:01.491Z,10.92
2023-02-17T21:18:28.045Z,10.85
2023-02-17T21:20:54.545Z,10.84
2023-02-17T21:23:22.609Z,10.84
2023-02-17T21:25:49.191Z,10.82
2023-02-17T21:28:17.495Z,10.80
2023-02-17T21:30:47.226Z,10.79
2023-02-17T21:33:13.756Z,10.75
2023-02-17T21:35:40.421Z,10.71
2023-02-17T21:38:07.065Z,10.65
2023-02-17T21:40:33.574Z,10.68
2023-02-17T21:43:18.583Z,10.70
2023-02-17T21:45:45.575Z,10.68
2023-02-17T21:48:13.421Z,10.62
2023-02-17T21:50:39.951Z,10.59
2023-02-17T21:53:06.498Z,10.54
2023-02-17T21:55:33.649Z,10.52
2023-02-17T21:58:00.159Z,10.53
2023-02-17T22:00:26.744Z,10.49
2023-02-17T22:02:53.283Z,10.43
2023-02-17T22:05:19.839Z,10.40
2023-02-17T22:07:50.022Z,10.35
2023-02-17T22:10:17.502Z,10.34
2023-02-17T22:12:44.126Z,10.36
2023-02-17T22:15:11.567Z,10.39
2023-02-17T22:17:38.108Z,10.32
2023-02-17T22:20:05.331Z,10.28
2023-02-17T22:22:31.891Z,10.30
2023-02-17T22:24:58.477Z,10.23
2023-02-17T22:27:25.054Z,10.21
2023-02-17T22:29:51.561Z,10.21
2023-02-17T22:32:18.373Z,10.17
2023-02-17T22:34:45.045Z,10.11
2023-02-17T22:37:11.630Z,10.03
2023-02-17T22:39:38.183Z,10.04
2023-02-17T22:42:05.028Z,10.06
2023-02-17T22:44:31.659Z,9.99
2023-02-17T22:46:58.180Z,10.04
2023-02-17T22:49:24.802Z,9.96
2023-02-17T22:51:51.340Z,9.92
2023-02-17T22:54:17.889Z,9.91
2023-02-17T22:56:44.402Z,9.83
2023-02-17T22:59:11.023Z,9.78
2023-02-17T23:01:37.665Z,9.81
2023-02-17T23:04:05.108Z,9.79
2023-02-17T23:06:37.129Z,9.76
2023-02-17T23:09:06.769Z,9.43
2023-02-17T23:11:51.203Z,9.32
2023-02-17T23:14:21.990Z,9.34
2023-02-17T23:16:48.739Z,9.33
2023-02-17T23:19:18.027Z,9.34
2023-02-17T23:21:49.989Z,9.33
2023-02-17T23:24:17.847Z,9.30
2023-02-17T23:26:44.559Z,9.24
2023-02-17T23:29:11.519Z,9.25
2023-02-17T23:31:39.016Z,9.25
2023-02-17T23:34:06.441Z,9.29
2023-02-17T23:36:33.511Z,9.29
2023-02-17T23:39:01.284Z,9.23
2023-02-17T23:41:28.097Z,9.56
2023-02-17T23:43:54.728Z,9.49
2023-02-17T23:46:21.513Z,9.52
2023-02-17T23:48:48.460Z,9.51
2023-02-17T23:51:18.116Z,9.51
2023-02-17T23:53:45.412Z,9.42
2023-02-17T23:56:19.075Z,9.32
2023-02-17T23:58:45.640Z,9.26
